Main page
METAR-TAF:

METAR-TAF

Airports :

Djibouti, Djibouti

Djibouti–Ambouli International Airport

latitude: 11-33N, longitude: 043-10E, elevation: 49 m

Current weather observation

The report was made 22 hours and 29 minutes ago, at 09:00 UTC
Wind 11 kt from the East
Temperature 41°C
Humidity 41%
Pressure 1007 hPa
Visibility 10 km or more
Few clouds at a height of 2300 ft

METAR: HDAM 250900Z 08011KT 9999 FEW023 41/25 Q1007

Time: 10:29 (07:29 UTC)

Forecast

The report was made 2 hours and 29 minutes ago, at 05:00 UTC
Forecast valid from 26 at 06 UTC to 27 at 06 UTC
Wind 3 kt from variable directions
Visibility: 8000 m
Few clouds at a height of 2300 ft
Few clouds at a height of 3000 ft, Cumulonimbus.
Scattered clouds at a height of 2000 ft
haze

TAF: HDAM 260500Z 2606/2706 08010KT 8000 HZ FEW023 BECMG2612/2618 FEW030CB BECMG2700/2706 VRB03KT SCT020

Weather observations and forecasts of more than 4000 airports (METAR and TAF reports).

The available stations are represented by yellow and red dots on the map.

Hover mouse over dot to see the name of the station.

Then click to see weather observations and forecasts.

To change the map : click on the green buttons with a black cross to zoom in, on the green button with a dash to zoom out, or on the green arrows for adjacent maps.


METAR-TAF: